createdAt,value
2022-11-28T00:00:43.191Z,100184.72
2022-11-28T00:03:11.925Z,100178.28
2022-11-28T00:05:47.150Z,100181.09
2022-11-28T00:08:17.925Z,100171.88
2022-11-28T00:10:53.898Z,100175.72
2022-11-28T00:13:34.896Z,100166.66
2022-11-28T00:16:07.849Z,100160.16
2022-11-28T00:18:37.561Z,100159.84
2022-11-28T00:21:08.654Z,100158.81
2022-11-28T00:23:49.237Z,100153.44
2022-11-28T00:26:21.153Z,100156.94
2022-11-28T00:28:55.010Z,100151.28
2022-11-28T00:31:33.872Z,100150.72
2022-11-28T00:34:07.187Z,100143.59
2022-11-28T00:36:42.435Z,100146.25
2022-11-28T00:39:14.347Z,100140.97
2022-11-28T00:41:52.793Z,100142.53
2022-11-28T00:44:27.612Z,100143.50
2022-11-28T00:46:59.140Z,100136.25
2022-11-28T00:49:37.829Z,100134.72
2022-11-28T00:52:15.161Z,100129.53
2022-11-28T00:54:54.604Z,100122.84
2022-11-28T00:57:25.048Z,100121.69
2022-11-28T00:59:59.622Z,100113.75
2022-11-28T01:02:40.689Z,100104.78
2022-11-28T01:05:12.732Z,100106.69
2022-11-28T01:07:43.633Z,100102.69
2022-11-28T01:10:16.735Z,100094.31
2022-11-28T01:12:47.127Z,100095.16
2022-11-28T01:15:28.425Z,100090.63
2022-11-28T01:17:58.400Z,100094.78
2022-11-28T01:20:30.296Z,100073.91
2022-11-28T01:23:04.319Z,100074.59
2022-11-28T01:25:35.974Z,100067.41
2022-11-28T01:28:04.126Z,100063.44
2022-11-28T01:30:40.851Z,100059.66
2022-11-28T01:33:11.503Z,100056.06
2022-11-28T01:35:48.665Z,100053.16
2022-11-28T01:38:18.152Z,100053.81
2022-11-28T01:40:55.278Z,100043.22
2022-11-28T01:43:32.290Z,100036.22
2022-11-28T01:46:13.135Z,100032.94
2022-11-28T01:48:48.497Z,100025.13
2022-11-28T01:51:28.801Z,100011.78
2022-11-28T01:54:06.083Z,100005.59
2022-11-28T01:56:43.044Z,99999.78
2022-11-28T01:59:16.529Z,99997.22
2022-11-28T02:01:58.223Z,99991.78
2022-11-28T02:04:39.542Z,99983.47
2022-11-28T02:07:09.105Z,99981.53
2022-11-28T02:09:40.717Z,99972.31
2022-11-28T02:12:20.804Z,99967.50
2022-11-28T02:16:02.648Z,99966.31
2022-11-28T02:18:52.352Z,99966.50
2022-11-28T02:21:36.444Z,99960.41
2022-11-28T02:24:36.840Z,99962.22
2022-11-28T02:27:31.973Z,99956.75
2022-11-28T02:30:20.943Z,99958.88
2022-11-28T02:33:15.899Z,99935.00
2022-11-28T02:35:58.948Z,99942.22
2022-11-28T02:38:38.539Z,99939.91
2022-11-28T02:41:15.330Z,99937.19
2022-11-28T02:44:03.780Z,99943.16
2022-11-28T02:46:56.841Z,99942.81
2022-11-28T02:49:35.608Z,99937.31
2022-11-28T02:52:13.997Z,99943.84
2022-11-28T02:54:50.884Z,99943.63
2022-11-28T02:57:23.517Z,99929.47
2022-11-28T02:59:53.276Z,99917.84
2022-11-28T03:02:24.421Z,99915.50
2022-11-28T03:05:04.525Z,99920.56
2022-11-28T03:07:47.978Z,99912.88
2022-11-28T03:10:25.779Z,99906.25
2022-11-28T03:13:04.952Z,99917.69
2022-11-28T03:15:45.967Z,99912.09
2022-11-28T03:18:18.246Z,99912.50
2022-11-28T03:20:57.679Z,99911.31
2022-11-28T03:23:34.222Z,99915.44
2022-11-28T03:26:11.243Z,99916.13
2022-11-28T03:28:48.632Z,99910.06
2022-11-28T03:31:20.279Z,99915.56
2022-11-28T03:33:52.916Z,99910.38
2022-11-28T03:36:30.757Z,99907.88
2022-11-28T03:39:09.431Z,99915.47
2022-11-28T03:44:44.913Z,99904.25
2022-11-28T03:47:38.561Z,99902.28
2022-11-28T03:50:10.334Z,99899.44
2022-11-28T03:52:52.893Z,99899.16
2022-11-28T03:55:29.851Z,99901.72
2022-11-28T03:58:09.056Z,99898.78
2022-11-28T04:00:45.054Z,99898.81
2022-11-28T04:03:24.714Z,99901.88
2022-11-28T04:05:58.618Z,99891.69
2022-11-28T04:08:36.866Z,99895.84
2022-11-28T04:11:16.153Z,99882.38
2022-11-28T04:13:50.361Z,99875.69
2022-11-28T04:16:25.928Z,99880.81
2022-11-28T04:19:05.717Z,99871.03
2022-11-28T04:21:57.393Z,99870.75
2022-11-28T04:24:32.960Z,99870.75
2022-11-28T04:27:08.268Z,99885.13
2022-11-28T04:29:43.662Z,99877.38
2022-11-28T04:32:20.788Z,99860.28
2022-11-28T04:34:59.601Z,99867.38
2022-11-28T04:37:28.786Z,99861.63
2022-11-28T04:40:09.665Z,99861.34
2022-11-28T04:42:55.975Z,99852.88
2022-11-28T04:45:33.321Z,99862.50
2022-11-28T04:48:05.038Z,99857.94
2022-11-28T04:50:42.755Z,99845.03
2022-11-28T04:53:14.681Z,99855.91
2022-11-28T04:55:51.827Z,99848.09
2022-11-28T04:58:27.526Z,99841.53
2022-11-28T05:00:58.053Z,99853.16
2022-11-28T05:03:30.238Z,99834.13
2022-11-28T05:06:03.834Z,99839.63
2022-11-28T05:08:35.070Z,99835.28
2022-11-28T05:11:10.134Z,99822.59
2022-11-28T05:13:38.377Z,99836.59
2022-11-28T05:16:16.108Z,99831.13
2022-11-28T05:18:47.774Z,99832.03
2022-11-28T05:21:16.575Z,99835.31
2022-11-28T05:23:46.629Z,99826.19
2022-11-28T05:26:25.688Z,99833.00
2022-11-28T05:28:54.049Z,99818.91
2022-11-28T05:31:25.178Z,99824.50
2022-11-28T05:33:56.098Z,99818.56
2022-11-28T05:36:25.073Z,99814.97
2022-11-28T05:39:02.124Z,99819.00
2022-11-28T05:41:42.260Z,99814.53
2022-11-28T05:44:24.084Z,99823.63
2022-11-28T05:46:55.614Z,99821.75
2022-11-28T05:49:27.154Z,99823.88
2022-11-28T05:52:08.197Z,99828.84
2022-11-28T05:54:45.328Z,99829.69
2022-11-28T05:57:18.608Z,99831.81
2022-11-28T05:59:53.709Z,99825.66
2022-11-28T06:02:21.993Z,99824.09
2022-11-28T06:04:51.276Z,99816.34
2022-11-28T06:07:22.682Z,99819.72
2022-11-28T06:09:54.604Z,99821.97
2022-11-28T06:12:29.766Z,99818.69
2022-11-28T06:14:58.663Z,99806.53
2022-11-28T06:17:29.481Z,99799.94
2022-11-28T06:19:58.761Z,99806.09
2022-11-28T06:22:33.045Z,99804.00
2022-11-28T06:25:05.662Z,99810.84
2022-11-28T06:27:43.284Z,99810.13
2022-11-28T06:30:22.731Z,99794.66
2022-11-28T06:32:53.059Z,99799.94
2022-11-28T06:35:22.804Z,99803.66
2022-11-28T06:37:51.416Z,99804.19
2022-11-28T06:40:29.259Z,99800.03
2022-11-28T06:43:16.074Z,99798.41
2022-11-28T06:45:53.761Z,99805.88
2022-11-28T06:48:23.206Z,99805.81
2022-11-28T06:50:57.795Z,99806.53
2022-11-28T06:53:31.253Z,99802.28
2022-11-28T06:56:19.195Z,99789.28
2022-11-28T06:58:49.784Z,99794.16
2022-11-28T07:01:21.198Z,99792.16
2022-11-28T07:03:50.860Z,99785.56
2022-11-28T07:06:22.704Z,99794.47
2022-11-28T07:08:51.521Z,99792.59
2022-11-28T07:11:21.848Z,99784.97
2022-11-28T07:13:51.701Z,99785.41
2022-11-28T07:16:22.319Z,99785.25
2022-11-28T07:18:51.607Z,99792.53
2022-11-28T07:21:25.828Z,99784.50
2022-11-28T07:23:58.299Z,99789.91
2022-11-28T07:26:29.761Z,99786.31
2022-11-28T07:29:02.258Z,99785.03
2022-11-28T07:31:32.717Z,99776.13
2022-11-28T07:34:05.475Z,99785.00
2022-11-28T07:36:35.540Z,99779.53
2022-11-28T07:39:08.393Z,99766.25
2022-11-28T07:41:37.314Z,99760.78
2022-11-28T07:44:18.061Z,99770.84
2022-11-28T07:46:54.405Z,99765.44
2022-11-28T07:49:25.598Z,99757.91
2022-11-28T07:51:54.888Z,99768.34
2022-11-28T07:54:24.589Z,99757.38
2022-11-28T07:59:47.462Z,99767.00
2022-11-28T08:02:17.140Z,99760.19
2022-11-28T08:04:51.531Z,99764.03
2022-11-28T08:07:22.256Z,99764.28
2022-11-28T08:09:58.598Z,99763.59
2022-11-28T08:12:32.067Z,99763.97
2022-11-28T08:15:04.319Z,99760.06
2022-11-28T08:17:32.373Z,99753.06
2022-11-28T08:20:03.099Z,99756.81
2022-11-28T08:22:38.668Z,99758.44
2022-11-28T08:25:16.957Z,99749.22
2022-11-28T08:27:48.827Z,99758.34
2022-11-28T08:30:40.287Z,99750.31
2022-11-28T08:33:26.001Z,99753.75
2022-11-28T08:35:57.693Z,99763.44
2022-11-28T08:38:32.892Z,99732.94
2022-11-28T08:41:17.092Z,99753.03
2022-11-28T08:43:47.804Z,99759.16
2022-11-28T08:46:29.091Z,99751.50
2022-11-28T08:48:59.804Z,99758.59
2022-11-28T08:51:37.742Z,99764.13
2022-11-28T08:54:15.808Z,99758.13
2022-11-28T08:57:12.317Z,99748.84
2022-11-28T08:59:43.425Z,99747.81
2022-11-28T09:02:20.838Z,99749.00
2022-11-28T09:05:07.531Z,99746.16
2022-11-28T09:07:37.443Z,99746.50
2022-11-28T09:10:12.413Z,99742.19
2022-11-28T09:12:40.541Z,99739.72
2022-11-28T09:15:11.194Z,99727.31
2022-11-28T09:17:40.873Z,99733.94
2022-11-28T09:20:19.569Z,99733.91
2022-11-28T09:22:53.644Z,99734.28
2022-11-28T09:25:22.560Z,99734.28
2022-11-28T09:27:51.035Z,99735.53
2022-11-28T09:30:22.844Z,99733.53
2022-11-28T09:33:09.318Z,99727.13
2022-11-28T09:35:40.665Z,99714.56
2022-11-28T09:38:11.904Z,99722.34
2022-11-28T09:40:49.434Z,99711.84
2022-11-28T09:43:26.866Z,99720.53
2022-11-28T09:46:04.903Z,99711.41
2022-11-28T09:48:40.761Z,99711.78
2022-11-28T09:51:24.675Z,99717.63
2022-11-28T09:54:04.479Z,99703.06
2022-11-28T09:56:32.971Z,99703.84
2022-11-28T09:59:03.580Z,99699.19
2022-11-28T10:01:52.120Z,99695.81
2022-11-28T10:04:43.117Z,99693.66
2022-11-28T10:07:20.078Z,99686.31
2022-11-28T10:09:58.497Z,99683.66
2022-11-28T10:12:50.481Z,99684.22
2022-11-28T10:15:55.241Z,99685.09
2022-11-28T10:18:41.225Z,99687.16
2022-11-28T10:21:26.734Z,99676.63
2022-11-28T10:24:01.620Z,99675.56
2022-11-28T10:26:37.948Z,99670.59
2022-11-28T10:29:21.055Z,99670.72
2022-11-28T10:31:51.144Z,99667.94
2022-11-28T10:34:22.421Z,99674.84
2022-11-28T10:37:02.105Z,99675.44
2022-11-28T10:39:39.104Z,99671.69
2022-11-28T10:42:16.433Z,99661.22
2022-11-28T10:45:02.438Z,99663.97
2022-11-28T10:47:45.706Z,99654.47
2022-11-28T10:50:26.894Z,99656.25
2022-11-28T10:53:07.414Z,99649.19
2022-11-28T10:55:44.774Z,99649.69
2022-11-28T10:58:28.027Z,99653.91
2022-11-28T11:01:05.829Z,99651.38
2022-11-28T11:03:46.004Z,99646.03
2022-11-28T11:06:15.510Z,99642.31
2022-11-28T11:08:52.068Z,99643.16
2022-11-28T11:11:30.537Z,99635.81
2022-11-28T11:14:04.500Z,99638.97
2022-11-28T11:16:52.906Z,99645.63
2022-11-28T11:19:27.696Z,99636.81
2022-11-28T11:22:05.757Z,99630.50
2022-11-28T11:24:44.333Z,99634.84
2022-11-28T11:27:20.985Z,99631.81
2022-11-28T11:29:57.351Z,99627.75
2022-11-28T11:32:30.871Z,99635.66
2022-11-28T11:35:03.381Z,99625.31
2022-11-28T11:37:33.985Z,99619.84
2022-11-28T11:40:28.761Z,99623.31
2022-11-28T11:42:59.822Z,99630.09
2022-11-28T11:45:33.856Z,99631.19
2022-11-28T11:48:03.270Z,99631.25
2022-11-28T11:50:42.906Z,99633.88
2022-11-28T11:53:15.242Z,99634.56
2022-11-28T11:55:53.376Z,99631.97
2022-11-28T11:58:23.822Z,99624.31
2022-11-28T12:01:03.027Z,99635.19
2022-11-28T12:03:36.714Z,99627.50
2022-11-28T12:06:16.544Z,99623.88
2022-11-28T12:08:53.453Z,99633.44
2022-11-28T12:11:30.622Z,99620.53
2022-11-28T12:14:06.762Z,99622.03
2022-11-28T12:16:45.640Z,99622.22
2022-11-28T12:19:27.541Z,99612.31
2022-11-28T12:22:13.439Z,99612.63
2022-11-28T12:24:49.381Z,99609.69
2022-11-28T12:27:34.562Z,99611.41
2022-11-28T12:30:21.458Z,99609.22
2022-11-28T12:32:58.692Z,99617.41
2022-11-28T12:35:41.160Z,99617.88
2022-11-28T12:38:25.224Z,99623.22
2022-11-28T12:41:09.843Z,99630.94
2022-11-28T12:44:01.077Z,99631.44
2022-11-28T12:46:44.980Z,99621.97
2022-11-28T12:49:28.958Z,99622.59
2022-11-28T12:52:05.919Z,99616.75
2022-11-28T12:54:43.951Z,99614.50
2022-11-28T12:57:20.936Z,99615.84
2022-11-28T13:00:07.006Z,99610.44
2022-11-28T13:02:51.162Z,99607.06
2022-11-28T13:05:30.962Z,99613.09
2022-11-28T13:08:20.549Z,99613.81
2022-11-28T13:10:58.437Z,99619.44
2022-11-28T13:13:35.541Z,99626.09
2022-11-28T13:16:18.015Z,99625.59
2022-11-28T13:18:56.919Z,99616.41
2022-11-28T13:21:33.680Z,99617.31
2022-11-28T13:24:11.721Z,99613.75
2022-11-28T13:26:58.122Z,99612.25
2022-11-28T13:29:34.349Z,99623.94
2022-11-28T13:32:18.818Z,99623.94
2022-11-28T13:34:47.637Z,99629.81
2022-11-28T13:40:21.357Z,99624.06
2022-11-28T13:43:07.221Z,99625.50
2022-11-28T13:49:16.327Z,99641.97
2022-11-28T13:51:57.617Z,99631.66
2022-11-28T13:54:49.941Z,99639.00
2022-11-28T13:57:23.561Z,99639.00
2022-11-28T13:59:59.593Z,99639.47
2022-11-28T14:02:37.222Z,99640.78
2022-11-28T14:05:26.097Z,99633.50
2022-11-28T14:07:55.868Z,99637.63
2022-11-28T14:10:45.469Z,99645.56
2022-11-28T14:13:38.580Z,99645.97
2022-11-28T14:16:19.991Z,99653.69
2022-11-28T14:19:06.970Z,99667.53
2022-11-28T14:22:01.066Z,99669.44
2022-11-28T14:24:51.736Z,99676.97
2022-11-28T14:27:24.091Z,99670.09
2022-11-28T14:30:04.659Z,99658.13
2022-11-28T14:32:38.183Z,99660.44
2022-11-28T14:35:32.422Z,99667.78
2022-11-28T14:38:52.541Z,99659.66
2022-11-28T14:41:21.909Z,99656.66
2022-11-28T14:43:53.804Z,99658.06
2022-11-28T14:46:28.412Z,99661.84
2022-11-28T14:49:24.041Z,99665.69
2022-11-28T14:52:38.452Z,99682.78
2022-11-28T14:55:25.690Z,99672.13
2022-11-28T14:57:58.097Z,99681.41
2022-11-28T15:00:29.645Z,99679.00
2022-11-28T15:03:12.210Z,99677.75
2022-11-28T15:06:07.493Z,99676.91
2022-11-28T15:09:03.180Z,99682.72
2022-11-28T15:12:01.628Z,99680.19
2022-11-28T15:14:32.662Z,99687.34
2022-11-28T15:17:21.090Z,99693.19
2022-11-28T15:19:58.235Z,99696.94
2022-11-28T15:22:35.352Z,99692.75
2022-11-28T15:25:22.447Z,99693.00
2022-11-28T15:27:58.405Z,99684.72
2022-11-28T15:30:50.175Z,99692.13
2022-11-28T15:33:21.507Z,99686.91
2022-11-28T15:36:01.049Z,99687.22
2022-11-28T15:38:41.016Z,99692.56
2022-11-28T15:41:18.538Z,99706.22
2022-11-28T15:44:02.615Z,99691.94
2022-11-28T15:46:39.838Z,99701.25
2022-11-28T15:49:25.208Z,99699.78
2022-11-28T15:51:55.438Z,99704.25
2022-11-28T15:54:35.320Z,99701.53
2022-11-28T15:57:14.031Z,99709.50
2022-11-28T15:59:51.140Z,99699.28
2022-11-28T16:02:27.531Z,99703.88
2022-11-28T16:05:11.311Z,99701.03
2022-11-28T16:07:43.936Z,99708.53
2022-11-28T16:10:23.598Z,99714.91
2022-11-28T16:13:03.694Z,99717.72
2022-11-28T16:15:49.891Z,99709.13
2022-11-28T16:18:29.823Z,99707.88
2022-11-28T16:21:00.847Z,99706.91
2022-11-28T16:23:31.812Z,99709.34
2022-11-28T16:26:04.300Z,99707.25
2022-11-28T16:28:43.711Z,99711.59
2022-11-28T16:31:24.052Z,99716.75
2022-11-28T16:33:54.129Z,99713.97
2022-11-28T16:36:52.486Z,99707.34
2022-11-28T16:39:36.395Z,99706.16
2022-11-28T16:42:16.516Z,99713.06
2022-11-28T16:44:54.398Z,99710.97
2022-11-28T16:47:35.816Z,99723.16
2022-11-28T16:50:29.456Z,99713.91
2022-11-28T16:53:00.387Z,99719.63
2022-11-28T16:55:51.224Z,99715.69
2022-11-28T16:58:24.328Z,99718.25
2022-11-28T17:01:15.686Z,99719.94
2022-11-28T17:03:52.236Z,99728.69
2022-11-28T17:06:36.461Z,99732.94
2022-11-28T17:09:12.662Z,99716.78
2022-11-28T17:11:45.720Z,99729.66
2022-11-28T17:14:17.319Z,99725.22
2022-11-28T17:16:52.104Z,99715.91
2022-11-28T17:19:23.523Z,99726.69
2022-11-28T17:22:10.084Z,99720.25
2022-11-28T17:24:52.247Z,99725.13
2022-11-28T17:27:31.685Z,99729.59
2022-11-28T17:30:14.735Z,99726.91
2022-11-28T17:33:00.470Z,99730.09
2022-11-28T17:35:41.199Z,99725.88
2022-11-28T17:38:11.895Z,99731.94
2022-11-28T17:40:55.582Z,99725.66
2022-11-28T17:43:35.944Z,99726.91
2022-11-28T17:46:19.377Z,99730.63
2022-11-28T17:49:06.393Z,99726.84
2022-11-28T17:52:00.919Z,99727.75
2022-11-28T17:54:39.283Z,99726.63
2022-11-28T17:57:19.405Z,99735.28
2022-11-28T18:00:07.056Z,99728.00
2022-11-28T18:02:56.517Z,99725.22
2022-11-28T18:05:29.097Z,99715.06
2022-11-28T18:08:05.258Z,99732.53
2022-11-28T18:10:41.444Z,99729.56
2022-11-28T18:13:19.957Z,99739.84
2022-11-28T18:15:55.946Z,99736.25
2022-11-28T18:18:32.453Z,99735.81
2022-11-28T18:21:20.347Z,99737.63
2022-11-28T18:27:04.628Z,99722.81
2022-11-28T18:32:42.367Z,99712.72
2022-11-28T18:35:20.740Z,99724.16
2022-11-28T18:37:59.943Z,99726.25
2022-11-28T18:40:45.119Z,99737.94
2022-11-28T18:43:18.667Z,99732.22
2022-11-28T18:45:50.068Z,99733.47
2022-11-28T18:48:28.721Z,99730.09
2022-11-28T18:51:29.429Z,99732.84
2022-11-28T18:54:04.313Z,99732.75
2022-11-28T18:56:52.937Z,99739.94
2022-11-28T18:59:37.129Z,99733.72
2022-11-28T19:02:16.708Z,99740.47
2022-11-28T19:05:02.151Z,99743.44
2022-11-28T19:07:39.849Z,99736.78
2022-11-28T19:10:18.528Z,99747.78
2022-11-28T19:12:52.452Z,99743.44
2022-11-28T19:15:33.061Z,99739.19
2022-11-28T19:18:16.066Z,99747.69
2022-11-28T19:20:47.507Z,99741.31
2022-11-28T19:23:26.027Z,99749.34
2022-11-28T19:26:06.847Z,99731.16
2022-11-28T19:28:47.434Z,99743.34
2022-11-28T19:31:21.114Z,99729.28
2022-11-28T19:34:01.156Z,99733.38
2022-11-28T19:36:46.457Z,99730.09
2022-11-28T19:39:41.790Z,99731.16
2022-11-28T19:42:34.730Z,99741.00
2022-11-28T19:45:27.998Z,99736.03
2022-11-28T19:48:06.777Z,99730.53
2022-11-28T19:50:38.464Z,99738.56
2022-11-28T19:53:23.932Z,99742.16
2022-11-28T19:56:02.691Z,99750.75
2022-11-28T19:58:46.024Z,99739.84
2022-11-28T20:01:26.568Z,99735.28
2022-11-28T20:04:06.825Z,99742.19
2022-11-28T20:06:58.098Z,99744.72
2022-11-28T20:09:35.991Z,99741.97
2022-11-28T20:12:32.161Z,99745.56
2022-11-28T20:15:18.399Z,99746.09
2022-11-28T20:18:04.534Z,99747.56
2022-11-28T20:20:54.935Z,99748.06
2022-11-28T20:23:25.184Z,99743.44
2022-11-28T20:25:57.073Z,99755.94
2022-11-28T20:28:46.113Z,99754.13
2022-11-28T20:31:24.822Z,99754.88
2022-11-28T20:33:56.862Z,99760.06
2022-11-28T20:36:29.084Z,99751.19
2022-11-28T20:38:59.689Z,99750.75
2022-11-28T20:41:31.154Z,99754.13
2022-11-28T20:44:01.830Z,99749.78
2022-11-28T20:46:35.268Z,99751.50
2022-11-28T20:49:12.461Z,99742.16
2022-11-28T20:51:42.396Z,99758.00
2022-11-28T20:54:14.616Z,99755.38
2022-11-28T20:59:37.807Z,99764.88
2022-11-28T21:02:07.661Z,99771.13
2022-11-28T21:04:40.529Z,99771.31
2022-11-28T21:07:09.850Z,99765.56
2022-11-28T21:09:38.357Z,99760.56
2022-11-28T21:12:09.286Z,99763.13
2022-11-28T21:14:37.837Z,99765.66
2022-11-28T21:17:07.401Z,99768.00
2022-11-28T21:19:36.167Z,99773.47
2022-11-28T21:22:23.852Z,99777.38
2022-11-28T21:24:56.110Z,99772.22
2022-11-28T21:27:35.169Z,99776.88
2022-11-28T21:30:08.902Z,99766.75
2022-11-28T21:32:43.586Z,99775.63
2022-11-28T21:35:15.270Z,99755.91
2022-11-28T21:37:51.685Z,99753.81
2022-11-28T21:40:25.815Z,99745.88
2022-11-28T21:42:57.713Z,99755.28
2022-11-28T21:45:34.421Z,99758.97
2022-11-28T21:48:13.395Z,99748.94
2022-11-28T21:50:51.436Z,99758.47
2022-11-28T21:53:22.269Z,99747.25
2022-11-28T21:56:01.004Z,99761.63
2022-11-28T21:58:31.954Z,99766.75
2022-11-28T22:01:02.662Z,99749.25
2022-11-28T22:03:40.479Z,99756.88
2022-11-28T22:06:16.847Z,99759.84
2022-11-28T22:08:52.397Z,99763.56
2022-11-28T22:11:24.728Z,99749.13
2022-11-28T22:13:55.566Z,99754.44
2022-11-28T22:16:29.196Z,99760.25
2022-11-28T22:19:00.896Z,99751.91
2022-11-28T22:24:38.205Z,99748.06
2022-11-28T22:27:10.667Z,99749.59
2022-11-28T22:29:42.296Z,99762.91
2022-11-28T22:32:11.681Z,99747.13
2022-11-28T22:34:49.618Z,99747.03
2022-11-28T22:37:21.080Z,99740.56
2022-11-28T22:39:53.068Z,99741.22
2022-11-28T22:42:24.664Z,99744.72
2022-11-28T22:44:55.411Z,99736.66
2022-11-28T22:47:27.211Z,99751.03
2022-11-28T22:50:05.960Z,99744.16
2022-11-28T22:52:48.176Z,99746.09
2022-11-28T22:55:20.227Z,99750.63
2022-11-28T22:57:57.769Z,99742.84
2022-11-28T23:00:28.472Z,99746.91
2022-11-28T23:03:04.169Z,99749.44
2022-11-28T23:05:47.900Z,99741.81
2022-11-28T23:08:19.877Z,99749.59
2022-11-28T23:10:58.085Z,99753.31
2022-11-28T23:13:31.146Z,99751.81
2022-11-28T23:16:18.927Z,99746.34
2022-11-28T23:18:51.870Z,99751.13
2022-11-28T23:21:22.151Z,99740.06
2022-11-28T23:23:57.102Z,99743.09
2022-11-28T23:26:31.561Z,99744.50
2022-11-28T23:29:00.845Z,99742.13
2022-11-28T23:31:41.556Z,99745.75
2022-11-28T23:34:13.105Z,99739.41
2022-11-28T23:36:46.708Z,99738.75
2022-11-28T23:39:23.944Z,99740.25
2022-11-28T23:41:55.669Z,99746.19
2022-11-28T23:44:27.859Z,99739.53
2022-11-28T23:47:11.615Z,99740.75
2022-11-28T23:49:40.081Z,99739.69
2022-11-28T23:52:08.334Z,99729.41
2022-11-28T23:54:36.977Z,99733.03
2022-11-28T23:57:10.853Z,99742.31
2022-11-28T23:59:47.849Z,99729.41
